Aeroporto :
LOGIN :

Iscrizione | Disclaimer

   EN    FR    IT 

 










Sommario :    VFR   VFR Marginale   IFR   IFR Intensivo   IFR Molto Intensivo
Visibilità : 
Base nubi : 
>= 8 km
>= 3000ft
5 / 8 km
1000 / 3000 ft
1500m / 5 km
500 / 1000 ft
800 / 1500m
200 / 500 ft
< 800m
< 200 ft
Simboli :   Temporali  Nebbia  Neve Forte  Precipitazioni Forti  Vento > 20 kt
SIGMETs :   Varie  Temporali  Ghiacco  Turbolenza  Onda orograficha  Ceneri Vulcaniche






- Altitudine del aeroporto : 39 ft
- Codice IATA : ANR


EBAW - Anvers / Antwerpen Deurne

ULTIMO METAR :
  • 040650Z 34010KT 7000 -SHRA SCT016 BKN035 13/11 Q0999 TEMPO BKN013

METARs OBSOLETI :
  • 040620Z 34011KT 310V010 9999 BKN016 14/10 Q0999 TEMPO BKN013
  • 040550Z AUTO 34010KT 9999 // FEW017/// SCT019/// OVC024/// 14/10 Q0999
  • 040520Z AUTO 34008KT 9999 // OVC020/// 14/10 Q0999
  • 040450Z AUTO 35008KT 9999 // OVC015/// 14/11 Q0999
  • 040420Z AUTO 35007KT 9999 // FEW015/// OVC019/// 14/11 Q0999

TAF TAF EBAW
Valido dal 04 a 06 ore il 04 a 15 ore UTC


040520Z 0406/0415 33008KT 9999 BKN018
PROB40
TEMPO 0406/0407 BKN012
PROB40
TEMPO 0407/0414 4000 RA SHRA SCT010 BKN014TCU



MetMap, La meteo Aeronautica in un colpo d'occhio ! - Copyright ORBIFLY Dicembre 2007 - Disclaimer

ORBIFLY MET'MAP TEAM :

Programmazione e sviluppo : Alexandra Zaïnal
Concezione : Baudouin d'Aumeries
Aiuto per la programmazione : Marc-Olivier Méhu
Supporto tecnico e logistico : Manuel Goepfert
Aiuto per la traduzione : Arnaldo La Scala

Contatto : metmap@orbifly.com




FONTI E CREDITI :

   NOAA